sensor_id;sensor_type;location;lat;lon;timestamp;P1;durP1;ratioP1;P2;durP2;ratioP2
8632;SDS011;4354;49.832;10.746;2022-07-06T00:02:06;3.33;;;2.60;;
8632;SDS011;4354;49.832;10.746;2022-07-06T00:04:38;2.50;;;2.30;;
8632;SDS011;4354;49.832;10.746;2022-07-06T00:07:08;4.00;;;2.57;;
8632;SDS011;4354;49.832;10.746;2022-07-06T00:09:45;6.63;;;2.47;;
8632;SDS011;4354;49.832;10.746;2022-07-06T00:12:19;2.70;;;2.50;;
8632;SDS011;4354;49.832;10.746;2022-07-06T00:14:52;2.47;;;2.23;;
8632;SDS011;4354;49.832;10.746;2022-07-06T00:17:33;3.70;;;2.60;;
8632;SDS011;4354;49.832;10.746;2022-07-06T00:20:07;4.73;;;2.60;;
8632;SDS011;4354;49.832;10.746;2022-07-06T00:22:42;2.60;;;2.40;;
8632;SDS011;4354;49.832;10.746;2022-07-06T00:25:12;4.20;;;2.57;;
8632;SDS011;4354;49.832;10.746;2022-07-06T00:27:42;2.73;;;2.53;;
8632;SDS011;4354;49.832;10.746;2022-07-06T00:30:17;4.17;;;2.70;;
8632;SDS011;4354;49.832;10.746;2022-07-06T00:32:45;2.53;;;2.13;;
8632;SDS011;4354;49.832;10.746;2022-07-06T00:35:20;2.77;;;2.40;;
8632;SDS011;4354;49.832;10.746;2022-07-06T00:37:49;3.27;;;2.27;;
8632;SDS011;4354;49.832;10.746;2022-07-06T00:40:22;2.40;;;2.20;;
8632;SDS011;4354;49.832;10.746;2022-07-06T00:42:56;4.93;;;2.80;;
8632;SDS011;4354;49.832;10.746;2022-07-06T00:45:27;4.70;;;2.40;;
8632;SDS011;4354;49.832;10.746;2022-07-06T00:47:57;3.03;;;2.30;;
8632;SDS011;4354;49.832;10.746;2022-07-06T00:50:26;3.70;;;2.30;;
8632;SDS011;4354;49.832;10.746;2022-07-06T00:53:02;4.30;;;2.30;;
8632;SDS011;4354;49.832;10.746;2022-07-06T00:55:42;3.67;;;2.67;;
8632;SDS011;4354;49.832;10.746;2022-07-06T00:58:13;8.60;;;2.60;;
8632;SDS011;4354;49.832;10.746;2022-07-06T01:00:44;2.50;;;2.30;;
8632;SDS011;4354;49.832;10.746;2022-07-06T01:03:13;4.57;;;2.37;;
8632;SDS011;4354;49.832;10.746;2022-07-06T01:05:41;5.23;;;2.37;;
8632;SDS011;4354;49.832;10.746;2022-07-06T01:08:20;3.87;;;2.80;;
8632;SDS011;4354;49.832;10.746;2022-07-06T01:10:51;2.77;;;2.37;;
8632;SDS011;4354;49.832;10.746;2022-07-06T01:13:19;3.67;;;2.40;;
8632;SDS011;4354;49.832;10.746;2022-07-06T01:15:49;4.10;;;2.40;;
8632;SDS011;4354;49.832;10.746;2022-07-06T01:18:25;3.17;;;2.10;;
8632;SDS011;4354;49.832;10.746;2022-07-06T01:21:07;3.90;;;2.63;;
8632;SDS011;4354;49.832;10.746;2022-07-06T01:23:42;6.80;;;2.50;;
8632;SDS011;4354;49.832;10.746;2022-07-06T01:26:17;3.67;;;2.57;;
8632;SDS011;4354;49.832;10.746;2022-07-06T01:28:54;2.63;;;2.43;;
8632;SDS011;4354;49.832;10.746;2022-07-06T01:31:24;3.83;;;2.43;;
8632;SDS011;4354;49.832;10.746;2022-07-06T01:33:54;3.47;;;2.50;;
8632;SDS011;4354;49.832;10.746;2022-07-06T01:36:26;2.67;;;2.47;;
8632;SDS011;4354;49.832;10.746;2022-07-06T01:38:55;3.90;;;2.53;;
8632;SDS011;4354;49.832;10.746;2022-07-06T01:41:30;2.90;;;2.60;;
8632;SDS011;4354;49.832;10.746;2022-07-06T01:44:02;3.00;;;2.70;;
8632;SDS011;4354;49.832;10.746;2022-07-06T01:46:31;3.67;;;2.40;;
8632;SDS011;4354;49.832;10.746;2022-07-06T01:49:03;4.23;;;2.53;;
8632;SDS011;4354;49.832;10.746;2022-07-06T01:51:44;5.10;;;2.70;;
8632;SDS011;4354;49.832;10.746;2022-07-06T01:54:19;3.10;;;2.30;;
8632;SDS011;4354;49.832;10.746;2022-07-06T01:56:50;2.57;;;2.23;;
8632;SDS011;4354;49.832;10.746;2022-07-06T01:59:22;3.70;;;2.60;;
8632;SDS011;4354;49.832;10.746;2022-07-06T02:01:53;3.00;;;2.80;;
8632;SDS011;4354;49.832;10.746;2022-07-06T02:04:31;2.67;;;2.40;;
8632;SDS011;4354;49.832;10.746;2022-07-06T02:07:17;2.87;;;2.67;;
8632;SDS011;4354;49.832;10.746;2022-07-06T02:09:48;5.10;;;2.80;;
8632;SDS011;4354;49.832;10.746;2022-07-06T02:12:23;2.93;;;2.63;;
8632;SDS011;4354;49.832;10.746;2022-07-06T02:14:54;5.27;;;2.73;;
8632;SDS011;4354;49.832;10.746;2022-07-06T02:17:31;4.73;;;2.73;;
8632;SDS011;4354;49.832;10.746;2022-07-06T02:20:04;5.07;;;2.60;;
8632;SDS011;4354;49.832;10.746;2022-07-06T02:22:39;4.50;;;2.40;;
8632;SDS011;4354;49.832;10.746;2022-07-06T02:25:15;3.50;;;3.00;;
8632;SDS011;4354;49.832;10.746;2022-07-06T02:27:45;3.70;;;2.90;;
8632;SDS011;4354;49.832;10.746;2022-07-06T02:30:16;5.20;;;3.10;;
8632;SDS011;4354;49.832;10.746;2022-07-06T02:32:45;3.23;;;2.93;;
8632;SDS011;4354;49.832;10.746;2022-07-06T02:35:13;3.27;;;3.00;;
8632;SDS011;4354;49.832;10.746;2022-07-06T02:37:40;6.57;;;3.33;;
8632;SDS011;4354;49.832;10.746;2022-07-06T02:40:07;5.50;;;3.20;;
8632;SDS011;4354;49.832;10.746;2022-07-06T02:42:34;4.63;;;3.00;;
8632;SDS011;4354;49.832;10.746;2022-07-06T02:45:01;3.70;;;3.00;;
8632;SDS011;4354;49.832;10.746;2022-07-06T02:47:28;4.53;;;3.67;;
8632;SDS011;4354;49.832;10.746;2022-07-06T02:49:55;4.10;;;3.07;;
8632;SDS011;4354;49.832;10.746;2022-07-06T02:52:22;4.70;;;3.00;;
8632;SDS011;4354;49.832;10.746;2022-07-06T02:54:49;4.80;;;3.37;;
8632;SDS011;4354;49.832;10.746;2022-07-06T02:57:16;3.03;;;2.77;;
8632;SDS011;4354;49.832;10.746;2022-07-06T02:59:44;3.10;;;2.80;;
8632;SDS011;4354;49.832;10.746;2022-07-06T03:02:12;5.70;;;3.20;;
8632;SDS011;4354;49.832;10.746;2022-07-06T03:04:38;3.20;;;2.83;;
8632;SDS011;4354;49.832;10.746;2022-07-06T03:07:05;3.40;;;3.10;;
8632;SDS011;4354;49.832;10.746;2022-07-06T03:09:32;3.80;;;3.50;;
8632;SDS011;4354;49.832;10.746;2022-07-06T03:12:00;3.70;;;3.40;;
8632;SDS011;4354;49.832;10.746;2022-07-06T03:14:27;3.73;;;3.37;;
8632;SDS011;4354;49.832;10.746;2022-07-06T03:16:54;3.70;;;3.23;;
8632;SDS011;4354;49.832;10.746;2022-07-06T03:19:21;5.67;;;3.00;;
8632;SDS011;4354;49.832;10.746;2022-07-06T03:21:48;4.53;;;3.27;;
8632;SDS011;4354;49.832;10.746;2022-07-06T03:24:15;4.77;;;3.43;;
8632;SDS011;4354;49.832;10.746;2022-07-06T03:26:42;4.17;;;3.07;;
8632;SDS011;4354;49.832;10.746;2022-07-06T03:29:09;4.63;;;2.80;;
8632;SDS011;4354;49.832;10.746;2022-07-06T03:31:35;4.03;;;3.37;;
8632;SDS011;4354;49.832;10.746;2022-07-06T03:34:02;3.77;;;3.27;;
8632;SDS011;4354;49.832;10.746;2022-07-06T03:36:29;2.97;;;2.77;;
8632;SDS011;4354;49.832;10.746;2022-07-06T03:39:03;4.13;;;3.20;;
8632;SDS011;4354;49.832;10.746;2022-07-06T03:41:31;4.67;;;3.13;;
8632;SDS011;4354;49.832;10.746;2022-07-06T03:43:58;6.40;;;3.27;;
8632;SDS011;4354;49.832;10.746;2022-07-06T03:46:25;5.40;;;3.07;;
8632;SDS011;4354;49.832;10.746;2022-07-06T03:48:53;4.20;;;3.10;;
8632;SDS011;4354;49.832;10.746;2022-07-06T03:51:20;5.97;;;2.90;;
8632;SDS011;4354;49.832;10.746;2022-07-06T03:53:46;2.77;;;2.53;;
8632;SDS011;4354;49.832;10.746;2022-07-06T03:56:13;3.30;;;3.00;;
8632;SDS011;4354;49.832;10.746;2022-07-06T03:58:56;3.40;;;3.10;;
8632;SDS011;4354;49.832;10.746;2022-07-06T04:01:24;5.33;;;3.10;;
8632;SDS011;4354;49.832;10.746;2022-07-06T04:03:51;4.20;;;3.20;;
8632;SDS011;4354;49.832;10.746;2022-07-06T04:06:18;4.33;;;2.93;;
8632;SDS011;4354;49.832;10.746;2022-07-06T04:08:46;4.03;;;3.20;;
8632;SDS011;4354;49.832;10.746;2022-07-06T04:11:12;3.33;;;3.03;;
8632;SDS011;4354;49.832;10.746;2022-07-06T04:13:39;3.63;;;2.90;;
8632;SDS011;4354;49.832;10.746;2022-07-06T04:16:07;3.00;;;2.80;;
8632;SDS011;4354;49.832;10.746;2022-07-06T04:18:35;2.70;;;2.50;;
8632;SDS011;4354;49.832;10.746;2022-07-06T04:21:02;3.13;;;2.77;;
8632;SDS011;4354;49.832;10.746;2022-07-06T04:23:29;4.53;;;2.77;;
8632;SDS011;4354;49.832;10.746;2022-07-06T04:25:56;2.63;;;2.40;;
8632;SDS011;4354;49.832;10.746;2022-07-06T04:28:23;2.73;;;2.53;;
8632;SDS011;4354;49.832;10.746;2022-07-06T04:30:50;2.93;;;2.30;;
8632;SDS011;4354;49.832;10.746;2022-07-06T04:33:18;4.80;;;2.60;;
8632;SDS011;4354;49.832;10.746;2022-07-06T04:35:45;4.00;;;2.30;;
8632;SDS011;4354;49.832;10.746;2022-07-06T04:38:12;2.57;;;2.37;;
8632;SDS011;4354;49.832;10.746;2022-07-06T04:40:39;4.77;;;2.50;;
8632;SDS011;4354;49.832;10.746;2022-07-06T04:43:05;4.40;;;2.43;;
8632;SDS011;4354;49.832;10.746;2022-07-06T04:45:32;2.80;;;2.23;;
8632;SDS011;4354;49.832;10.746;2022-07-06T04:47:59;2.83;;;2.63;;
8632;SDS011;4354;49.832;10.746;2022-07-06T04:50:26;2.73;;;2.30;;
8632;SDS011;4354;49.832;10.746;2022-07-06T04:52:53;2.33;;;2.10;;
8632;SDS011;4354;49.832;10.746;2022-07-06T04:55:20;3.13;;;2.70;;
8632;SDS011;4354;49.832;10.746;2022-07-06T04:57:47;3.37;;;2.40;;
8632;SDS011;4354;49.832;10.746;2022-07-06T05:00:14;2.80;;;2.30;;
8632;SDS011;4354;49.832;10.746;2022-07-06T05:02:41;2.60;;;2.40;;
8632;SDS011;4354;49.832;10.746;2022-07-06T05:05:08;4.40;;;2.43;;
8632;SDS011;4354;49.832;10.746;2022-07-06T05:07:35;3.27;;;2.63;;
8632;SDS011;4354;49.832;10.746;2022-07-06T05:10:09;2.97;;;2.67;;
8632;SDS011;4354;49.832;10.746;2022-07-06T05:12:37;3.77;;;2.80;;
8632;SDS011;4354;49.832;10.746;2022-07-06T05:15:05;2.97;;;2.20;;
8632;SDS011;4354;49.832;10.746;2022-07-06T05:17:32;2.60;;;2.40;;
8632;SDS011;4354;49.832;10.746;2022-07-06T05:19:59;3.80;;;2.63;;
8632;SDS011;4354;49.832;10.746;2022-07-06T05:22:26;2.73;;;2.20;;
8632;SDS011;4354;49.832;10.746;2022-07-06T05:24:53;2.87;;;2.50;;
8632;SDS011;4354;49.832;10.746;2022-07-06T05:27:20;4.50;;;2.30;;
8632;SDS011;4354;49.832;10.746;2022-07-06T05:29:47;2.47;;;2.07;;
8632;SDS011;4354;49.832;10.746;2022-07-06T05:32:14;3.60;;;1.90;;
8632;SDS011;4354;49.832;10.746;2022-07-06T05:34:41;4.20;;;2.40;;
8632;SDS011;4354;49.832;10.746;2022-07-06T05:37:08;2.77;;;1.77;;
8632;SDS011;4354;49.832;10.746;2022-07-06T05:39:35;2.27;;;1.90;;
8632;SDS011;4354;49.832;10.746;2022-07-06T05:42:05;1.85;;;1.75;;
8632;SDS011;4354;49.832;10.746;2022-07-06T05:44:33;3.75;;;1.75;;
8632;SDS011;4354;49.832;10.746;2022-07-06T05:47:00;8.82;;;2.10;;
8632;SDS011;4354;49.832;10.746;2022-07-06T05:49:45;2.70;;;1.60;;
8632;SDS011;4354;49.832;10.746;2022-07-06T05:52:30;3.50;;;1.80;;
8632;SDS011;4354;49.832;10.746;2022-07-06T05:54:57;5.10;;;1.50;;
8632;SDS011;4354;49.832;10.746;2022-07-06T05:57:24;2.25;;;1.50;;
8632;SDS011;4354;49.832;10.746;2022-07-06T05:59:52;1.90;;;1.35;;
8632;SDS011;4354;49.832;10.746;2022-07-06T06:02:19;2.63;;;1.50;;
8632;SDS011;4354;49.832;10.746;2022-07-06T06:04:46;4.05;;;1.75;;
8632;SDS011;4354;49.832;10.746;2022-07-06T06:07:19;2.30;;;1.67;;
8632;SDS011;4354;49.832;10.746;2022-07-06T06:09:45;2.60;;;1.40;;
8632;SDS011;4354;49.832;10.746;2022-07-06T06:12:12;2.72;;;1.30;;
8632;SDS011;4354;49.832;10.746;2022-07-06T06:14:39;2.20;;;1.52;;
8632;SDS011;4354;49.832;10.746;2022-07-06T06:17:06;1.83;;;1.55;;
8632;SDS011;4354;49.832;10.746;2022-07-06T06:19:36;2.95;;;1.50;;
8632;SDS011;4354;49.832;10.746;2022-07-06T06:22:03;2.08;;;1.55;;
8632;SDS011;4354;49.832;10.746;2022-07-06T06:24:39;2.35;;;1.23;;
8632;SDS011;4354;49.832;10.746;2022-07-06T06:27:06;1.75;;;1.30;;
8632;SDS011;4354;49.832;10.746;2022-07-06T06:29:33;3.10;;;1.42;;
8632;SDS011;4354;49.832;10.746;2022-07-06T06:32:00;1.60;;;1.38;;
8632;SDS011;4354;49.832;10.746;2022-07-06T06:34:27;5.97;;;1.40;;
8632;SDS011;4354;49.832;10.746;2022-07-06T06:36:54;3.20;;;1.55;;
8632;SDS011;4354;49.832;10.746;2022-07-06T06:39:21;2.80;;;1.30;;
8632;SDS011;4354;49.832;10.746;2022-07-06T06:41:48;4.45;;;1.20;;
8632;SDS011;4354;49.832;10.746;2022-07-06T06:44:14;4.03;;;1.45;;
8632;SDS011;4354;49.832;10.746;2022-07-06T06:46:41;3.75;;;1.40;;
8632;SDS011;4354;49.832;10.746;2022-07-06T06:49:08;2.20;;;1.35;;
8632;SDS011;4354;49.832;10.746;2022-07-06T06:51:36;2.15;;;1.13;;
8632;SDS011;4354;49.832;10.746;2022-07-06T06:54:05;1.63;;;1.42;;
8632;SDS011;4354;49.832;10.746;2022-07-06T06:56:31;1.30;;;1.10;;
8632;SDS011;4354;49.832;10.746;2022-07-06T06:58:58;2.80;;;1.48;;
8632;SDS011;4354;49.832;10.746;2022-07-06T07:01:43;3.53;;;1.45;;
8632;SDS011;4354;49.832;10.746;2022-07-06T07:04:10;4.60;;;1.48;;
8632;SDS011;4354;49.832;10.746;2022-07-06T07:06:38;3.28;;;1.15;;
8632;SDS011;4354;49.832;10.746;2022-07-06T07:09:05;1.70;;;1.27;;
8632;SDS011;4354;49.832;10.746;2022-07-06T07:11:32;3.95;;;1.35;;
8632;SDS011;4354;49.832;10.746;2022-07-06T07:13:59;1.63;;;1.17;;
8632;SDS011;4354;49.832;10.746;2022-07-06T07:16:27;2.25;;;1.25;;
8632;SDS011;4354;49.832;10.746;2022-07-06T07:18:54;4.00;;;1.50;;
8632;SDS011;4354;49.832;10.746;2022-07-06T07:21:21;1.33;;;1.05;;
8632;SDS011;4354;49.832;10.746;2022-07-06T07:23:48;1.88;;;1.30;;
8632;SDS011;4354;49.832;10.746;2022-07-06T07:26:16;3.13;;;1.48;;
8632;SDS011;4354;49.832;10.746;2022-07-06T07:28:43;2.25;;;1.20;;
8632;SDS011;4354;49.832;10.746;2022-07-06T07:31:10;2.00;;;1.23;;
8632;SDS011;4354;49.832;10.746;2022-07-06T07:33:37;3.70;;;1.20;;
8632;SDS011;4354;49.832;10.746;2022-07-06T07:36:04;3.72;;;1.10;;
8632;SDS011;4354;49.832;10.746;2022-07-06T07:38:31;4.78;;;1.42;;
8632;SDS011;4354;49.832;10.746;2022-07-06T07:40:58;3.08;;;1.50;;
8632;SDS011;4354;49.832;10.746;2022-07-06T07:43:25;5.38;;;1.35;;
8632;SDS011;4354;49.832;10.746;2022-07-06T07:45:52;6.45;;;1.40;;
8632;SDS011;4354;49.832;10.746;2022-07-06T07:48:19;1.63;;;1.27;;
8632;SDS011;4354;49.832;10.746;2022-07-06T07:50:47;2.65;;;1.40;;
8632;SDS011;4354;49.832;10.746;2022-07-06T07:53:13;5.03;;;1.40;;
8632;SDS011;4354;49.832;10.746;2022-07-06T07:55:40;2.90;;;1.23;;
8632;SDS011;4354;49.832;10.746;2022-07-06T07:58:08;3.28;;;1.15;;
8632;SDS011;4354;49.832;10.746;2022-07-06T08:00:35;2.92;;;1.33;;
8632;SDS011;4354;49.832;10.746;2022-07-06T08:03:02;1.58;;;1.10;;
8632;SDS011;4354;49.832;10.746;2022-07-06T08:05:29;2.80;;;1.25;;
8632;SDS011;4354;49.832;10.746;2022-07-06T08:07:57;3.13;;;1.40;;
8632;SDS011;4354;49.832;10.746;2022-07-06T08:10:24;3.08;;;1.60;;
8632;SDS011;4354;49.832;10.746;2022-07-06T08:12:51;4.35;;;1.30;;
8632;SDS011;4354;49.832;10.746;2022-07-06T08:15:18;3.15;;;1.67;;
8632;SDS011;4354;49.832;10.746;2022-07-06T08:17:45;2.42;;;1.25;;
8632;SDS011;4354;49.832;10.746;2022-07-06T08:20:15;2.35;;;1.17;;
8632;SDS011;4354;49.832;10.746;2022-07-06T08:22:42;2.97;;;1.45;;
8632;SDS011;4354;49.832;10.746;2022-07-06T08:25:12;3.80;;;1.30;;
8632;SDS011;4354;49.832;10.746;2022-07-06T08:27:39;2.35;;;1.42;;
8632;SDS011;4354;49.832;10.746;2022-07-06T08:30:07;1.48;;;1.25;;
8632;SDS011;4354;49.832;10.746;2022-07-06T08:32:36;4.78;;;1.25;;
8632;SDS011;4354;49.832;10.746;2022-07-06T08:35:25;2.45;;;1.20;;
8632;SDS011;4354;49.832;10.746;2022-07-06T08:37:52;3.45;;;1.50;;
8632;SDS011;4354;49.832;10.746;2022-07-06T08:40:19;2.72;;;1.33;;
8632;SDS011;4354;49.832;10.746;2022-07-06T08:42:46;3.13;;;1.30;;
8632;SDS011;4354;49.832;10.746;2022-07-06T08:45:16;3.25;;;1.55;;
8632;SDS011;4354;49.832;10.746;2022-07-06T08:47:43;3.08;;;1.33;;
8632;SDS011;4354;49.832;10.746;2022-07-06T08:50:11;3.53;;;1.05;;
8632;SDS011;4354;49.832;10.746;2022-07-06T08:52:38;4.00;;;1.63;;
8632;SDS011;4354;49.832;10.746;2022-07-06T08:55:07;2.67;;;1.45;;
8632;SDS011;4354;49.832;10.746;2022-07-06T08:57:35;4.88;;;1.65;;
8632;SDS011;4354;49.832;10.746;2022-07-06T09:00:02;3.22;;;1.30;;
8632;SDS011;4354;49.832;10.746;2022-07-06T09:02:29;3.15;;;1.45;;
8632;SDS011;4354;49.832;10.746;2022-07-06T09:04:56;2.60;;;1.20;;
8632;SDS011;4354;49.832;10.746;2022-07-06T09:07:25;4.32;;;1.33;;
8632;SDS011;4354;49.832;10.746;2022-07-06T09:10:18;3.42;;;1.33;;
8632;SDS011;4354;49.832;10.746;2022-07-06T09:12:46;3.08;;;1.50;;
8632;SDS011;4354;49.832;10.746;2022-07-06T09:15:14;2.47;;;1.17;;
8632;SDS011;4354;49.832;10.746;2022-07-06T09:17:42;2.25;;;1.00;;
8632;SDS011;4354;49.832;10.746;2022-07-06T09:20:13;1.73;;;1.52;;
8632;SDS011;4354;49.832;10.746;2022-07-06T09:22:40;3.30;;;1.52;;
8632;SDS011;4354;49.832;10.746;2022-07-06T09:25:09;3.03;;;1.58;;
8632;SDS011;4354;49.832;10.746;2022-07-06T09:27:42;3.30;;;1.83;;
8632;SDS011;4354;49.832;10.746;2022-07-06T09:30:13;5.35;;;1.33;;
8632;SDS011;4354;49.832;10.746;2022-07-06T09:32:41;2.03;;;1.40;;
8632;SDS011;4354;49.832;10.746;2022-07-06T09:35:26;5.03;;;1.50;;
8632;SDS011;4354;49.832;10.746;2022-07-06T09:40:27;3.60;;;1.50;;
8632;SDS011;4354;49.832;10.746;2022-07-06T09:45:49;1.30;;;1.20;;
8632;SDS011;4354;49.832;10.746;2022-07-06T09:48:24;4.40;;;1.90;;
8632;SDS011;4354;49.832;10.746;2022-07-06T09:50:57;4.55;;;1.40;;
8632;SDS011;4354;49.832;10.746;2022-07-06T09:53:26;3.95;;;1.42;;
8632;SDS011;4354;49.832;10.746;2022-07-06T09:55:54;2.33;;;1.52;;
8632;SDS011;4354;49.832;10.746;2022-07-06T09:58:22;2.35;;;1.40;;
8632;SDS011;4354;49.832;10.746;2022-07-06T10:01:09;3.63;;;1.40;;
8632;SDS011;4354;49.832;10.746;2022-07-06T10:03:36;3.85;;;1.60;;
8632;SDS011;4354;49.832;10.746;2022-07-06T10:06:04;3.45;;;1.45;;
8632;SDS011;4354;49.832;10.746;2022-07-06T10:08:31;5.03;;;1.20;;
8632;SDS011;4354;49.832;10.746;2022-07-06T10:11:00;3.22;;;1.30;;
8632;SDS011;4354;49.832;10.746;2022-07-06T10:13:28;4.10;;;1.33;;
8632;SDS011;4354;49.832;10.746;2022-07-06T10:15:57;6.68;;;1.40;;
8632;SDS011;4354;49.832;10.746;2022-07-06T10:18:24;5.03;;;1.40;;
8632;SDS011;4354;49.832;10.746;2022-07-06T10:20:52;4.47;;;1.60;;
8632;SDS011;4354;49.832;10.746;2022-07-06T10:23:19;2.25;;;1.10;;
8632;SDS011;4354;49.832;10.746;2022-07-06T10:25:49;3.10;;;1.50;;
8632;SDS011;4354;49.832;10.746;2022-07-06T10:28:17;2.55;;;1.27;;
8632;SDS011;4354;49.832;10.746;2022-07-06T10:30:45;3.92;;;1.35;;
8632;SDS011;4354;49.832;10.746;2022-07-06T10:33:15;6.22;;;1.67;;
8632;SDS011;4354;49.832;10.746;2022-07-06T10:35:46;1.88;;;1.10;;
8632;SDS011;4354;49.832;10.746;2022-07-06T10:38:13;4.63;;;1.90;;
8632;SDS011;4354;49.832;10.746;2022-07-06T10:40:41;3.63;;;1.27;;
8632;SDS011;4354;49.832;10.746;2022-07-06T10:46:07;2.13;;;1.30;;
8632;SDS011;4354;49.832;10.746;2022-07-06T10:48:37;2.80;;;1.20;;
8632;SDS011;4354;49.832;10.746;2022-07-06T10:51:05;6.15;;;1.30;;
8632;SDS011;4354;49.832;10.746;2022-07-06T10:53:34;2.47;;;1.60;;
8632;SDS011;4354;49.832;10.746;2022-07-06T10:56:03;2.05;;;1.02;;
8632;SDS011;4354;49.832;10.746;2022-07-06T11:01:14;2.28;;;1.08;;
8632;SDS011;4354;49.832;10.746;2022-07-06T11:08:48;3.58;;;1.27;;
8632;SDS011;4354;49.832;10.746;2022-07-06T11:11:26;4.97;;;1.40;;
8632;SDS011;4354;49.832;10.746;2022-07-06T11:14:08;3.70;;;1.20;;
8632;SDS011;4354;49.832;10.746;2022-07-06T11:19:15;4.85;;;1.33;;
8632;SDS011;4354;49.832;10.746;2022-07-06T11:24:17;5.13;;;1.20;;
8632;SDS011;4354;49.832;10.746;2022-07-06T11:26:47;3.58;;;1.30;;
8632;SDS011;4354;49.832;10.746;2022-07-06T11:29:16;2.55;;;1.10;;
8632;SDS011;4354;49.832;10.746;2022-07-06T11:31:45;4.57;;;1.20;;
8632;SDS011;4354;49.832;10.746;2022-07-06T11:34:18;2.75;;;1.38;;
8632;SDS011;4354;49.832;10.746;2022-07-06T11:36:46;2.72;;;1.10;;
8632;SDS011;4354;49.832;10.746;2022-07-06T11:39:14;2.08;;;1.20;;
8632;SDS011;4354;49.832;10.746;2022-07-06T11:41:41;2.40;;;1.08;;
8632;SDS011;4354;49.832;10.746;2022-07-06T11:44:16;2.22;;;1.30;;
8632;SDS011;4354;49.832;10.746;2022-07-06T11:46:43;2.38;;;1.20;;
8632;SDS011;4354;49.832;10.746;2022-07-06T11:49:10;2.78;;;1.35;;
8632;SDS011;4354;49.832;10.746;2022-07-06T11:51:38;3.30;;;1.23;;
8632;SDS011;4354;49.832;10.746;2022-07-06T11:54:11;2.72;;;1.33;;
8632;SDS011;4354;49.832;10.746;2022-07-06T11:56:49;1.45;;;1.23;;
8632;SDS011;4354;49.832;10.746;2022-07-06T11:59:20;3.22;;;1.10;;
8632;SDS011;4354;49.832;10.746;2022-07-06T12:01:49;2.28;;;1.20;;
8632;SDS011;4354;49.832;10.746;2022-07-06T12:04:16;5.68;;;1.13;;
8632;SDS011;4354;49.832;10.746;2022-07-06T12:06:43;3.03;;;1.05;;
8632;SDS011;4354;49.832;10.746;2022-07-06T12:09:11;1.65;;;1.17;;
8632;SDS011;4354;49.832;10.746;2022-07-06T12:11:38;1.48;;;1.13;;
8632;SDS011;4354;49.832;10.746;2022-07-06T12:14:16;1.80;;;1.10;;
8632;SDS011;4354;49.832;10.746;2022-07-06T12:16:50;3.50;;;1.17;;
8632;SDS011;4354;49.832;10.746;2022-07-06T12:19:17;3.58;;;1.15;;
8632;SDS011;4354;49.832;10.746;2022-07-06T12:21:48;2.15;;;1.10;;
8632;SDS011;4354;49.832;10.746;2022-07-06T12:24:23;2.30;;;0.98;;
8632;SDS011;4354;49.832;10.746;2022-07-06T12:26:54;3.30;;;1.17;;
8632;SDS011;4354;49.832;10.746;2022-07-06T12:29:21;2.03;;;1.05;;
8632;SDS011;4354;49.832;10.746;2022-07-06T12:31:53;2.17;;;1.05;;
8632;SDS011;4354;49.832;10.746;2022-07-06T12:34:23;1.52;;;1.20;;
8632;SDS011;4354;49.832;10.746;2022-07-06T12:39:19;1.83;;;1.20;;
8632;SDS011;4354;49.832;10.746;2022-07-06T12:44:22;1.42;;;1.10;;
8632;SDS011;4354;49.832;10.746;2022-07-06T12:46:51;1.17;;;1.08;;
8632;SDS011;4354;49.832;10.746;2022-07-06T12:49:36;2.67;;;1.10;;
8632;SDS011;4354;49.832;10.746;2022-07-06T12:54:35;3.80;;;1.20;;
8632;SDS011;4354;49.832;10.746;2022-07-06T12:57:21;2.33;;;1.27;;
8632;SDS011;4354;49.832;10.746;2022-07-06T13:02:24;1.73;;;1.25;;
8632;SDS011;4354;49.832;10.746;2022-07-06T13:05:12;2.88;;;1.40;;
8632;SDS011;4354;49.832;10.746;2022-07-06T13:07:47;2.65;;;1.02;;
8632;SDS011;4354;49.832;10.746;2022-07-06T13:10:15;2.88;;;1.27;;
8632;SDS011;4354;49.832;10.746;2022-07-06T13:12:42;4.10;;;1.15;;
8632;SDS011;4354;49.832;10.746;2022-07-06T13:15:09;2.83;;;1.30;;
8632;SDS011;4354;49.832;10.746;2022-07-06T13:17:37;2.50;;;1.38;;
8632;SDS011;4354;49.832;10.746;2022-07-06T13:20:08;2.85;;;1.30;;
8632;SDS011;4354;49.832;10.746;2022-07-06T13:22:37;3.00;;;1.30;;
8632;SDS011;4354;49.832;10.746;2022-07-06T13:25:05;3.13;;;1.00;;
8632;SDS011;4354;49.832;10.746;2022-07-06T13:27:33;2.72;;;1.33;;
8632;SDS011;4354;49.832;10.746;2022-07-06T13:30:00;1.70;;;1.23;;
8632;SDS011;4354;49.832;10.746;2022-07-06T13:32:27;1.52;;;1.10;;
8632;SDS011;4354;49.832;10.746;2022-07-06T13:34:54;3.67;;;1.33;;
8632;SDS011;4354;49.832;10.746;2022-07-06T13:37:21;1.92;;;1.20;;
8632;SDS011;4354;49.832;10.746;2022-07-06T13:39:49;4.88;;;1.40;;
8632;SDS011;4354;49.832;10.746;2022-07-06T13:42:15;2.03;;;1.13;;
8632;SDS011;4354;49.832;10.746;2022-07-06T13:44:42;4.45;;;1.02;;
8632;SDS011;4354;49.832;10.746;2022-07-06T13:47:10;1.77;;;1.10;;
8632;SDS011;4354;49.832;10.746;2022-07-06T13:49:37;1.73;;;1.00;;
8632;SDS011;4354;49.832;10.746;2022-07-06T13:52:04;2.13;;;1.00;;
8632;SDS011;4354;49.832;10.746;2022-07-06T13:54:32;1.50;;;0.75;;
8632;SDS011;4354;49.832;10.746;2022-07-06T13:57:03;1.80;;;1.20;;
8632;SDS011;4354;49.832;10.746;2022-07-06T13:59:31;2.60;;;1.42;;
8632;SDS011;4354;49.832;10.746;2022-07-06T14:01:59;3.65;;;1.23;;
8632;SDS011;4354;49.832;10.746;2022-07-06T14:04:26;2.20;;;1.33;;
8632;SDS011;4354;49.832;10.746;2022-07-06T14:06:53;2.55;;;1.15;;
8632;SDS011;4354;49.832;10.746;2022-07-06T14:09:20;1.90;;;1.30;;
8632;SDS011;4354;49.832;10.746;2022-07-06T14:11:47;2.40;;;1.40;;
8632;SDS011;4354;49.832;10.746;2022-07-06T14:14:14;1.80;;;1.13;;
8632;SDS011;4354;49.832;10.746;2022-07-06T14:16:44;1.95;;;1.20;;
8632;SDS011;4354;49.832;10.746;2022-07-06T14:19:11;1.48;;;1.10;;
8632;SDS011;4354;49.832;10.746;2022-07-06T14:21:49;2.45;;;1.20;;
8632;SDS011;4354;49.832;10.746;2022-07-06T14:24:16;3.65;;;1.40;;
8632;SDS011;4354;49.832;10.746;2022-07-06T14:26:43;1.50;;;1.23;;
8632;SDS011;4354;49.832;10.746;2022-07-06T14:29:09;1.83;;;1.20;;
8632;SDS011;4354;49.832;10.746;2022-07-06T14:31:36;3.03;;;1.20;;
8632;SDS011;4354;49.832;10.746;2022-07-06T14:34:04;2.88;;;1.48;;
8632;SDS011;4354;49.832;10.746;2022-07-06T14:36:31;1.50;;;1.08;;
8632;SDS011;4354;49.832;10.746;2022-07-06T14:39:01;1.73;;;1.27;;
8632;SDS011;4354;49.832;10.746;2022-07-06T14:41:28;2.55;;;0.90;;
8632;SDS011;4354;49.832;10.746;2022-07-06T14:43:55;2.80;;;1.33;;
8632;SDS011;4354;49.832;10.746;2022-07-06T14:46:22;3.13;;;0.90;;
8632;SDS011;4354;49.832;10.746;2022-07-06T14:48:49;1.30;;;1.10;;
8632;SDS011;4354;49.832;10.746;2022-07-06T14:51:19;2.53;;;1.20;;
8632;SDS011;4354;49.832;10.746;2022-07-06T14:53:46;2.55;;;1.20;;
8632;SDS011;4354;49.832;10.746;2022-07-06T14:56:14;1.30;;;1.08;;
8632;SDS011;4354;49.832;10.746;2022-07-06T14:58:41;2.78;;;1.10;;
8632;SDS011;4354;49.832;10.746;2022-07-06T15:01:28;4.65;;;1.20;;
8632;SDS011;4354;49.832;10.746;2022-07-06T15:03:55;2.28;;;1.30;;
8632;SDS011;4354;49.832;10.746;2022-07-06T15:06:22;2.65;;;1.25;;
8632;SDS011;4354;49.832;10.746;2022-07-06T15:09:09;4.03;;;1.30;;
8632;SDS011;4354;49.832;10.746;2022-07-06T15:11:36;2.75;;;1.10;;
8632;SDS011;4354;49.832;10.746;2022-07-06T15:14:03;2.78;;;1.02;;
8632;SDS011;4354;49.832;10.746;2022-07-06T15:16:29;3.17;;;1.38;;
8632;SDS011;4354;49.832;10.746;2022-07-06T15:18:57;3.58;;;1.33;;
8632;SDS011;4354;49.832;10.746;2022-07-06T15:21:24;6.65;;;1.38;;
8632;SDS011;4354;49.832;10.746;2022-07-06T15:23:50;2.15;;;1.20;;
8632;SDS011;4354;49.832;10.746;2022-07-06T15:26:18;4.78;;;1.20;;
8632;SDS011;4354;49.832;10.746;2022-07-06T15:28:45;1.52;;;1.30;;
8632;SDS011;4354;49.832;10.746;2022-07-06T15:31:12;2.38;;;1.00;;
8632;SDS011;4354;49.832;10.746;2022-07-06T15:33:45;4.63;;;1.17;;
8632;SDS011;4354;49.832;10.746;2022-07-06T15:36:12;2.15;;;1.20;;
8632;SDS011;4354;49.832;10.746;2022-07-06T15:38:39;2.15;;;1.05;;
8632;SDS011;4354;49.832;10.746;2022-07-06T15:41:07;2.85;;;1.40;;
8632;SDS011;4354;49.832;10.746;2022-07-06T15:43:34;2.65;;;1.30;;
8632;SDS011;4354;49.832;10.746;2022-07-06T15:46:04;2.38;;;1.15;;